Time;durP1;ratioP1;P1;durP2;ratioP2;P2;SDS_P1;SDS_P2;PMS_P1;PMS_P2;Temp;Humidity;BMP_temperature;BMP_pressure;BME280_temperature;BME280_humidity;BME280_pressure;Samples;Min_cycle;Max_cycle;Signal;HPM_P1;HPM_P2
2022/03/08 00:01:47;;;;;;;11.50;6.20;;;0.70;1.00;;;;;;5033002;28;20270;-79
2022/03/08 00:04:18;;;;;;;11.37;7.03;;;0.80;1.00;;;;;;5033478;28;20221;-79
2022/03/08 00:06:48;;;;;;;7.97;6.17;;;0.70;1.00;;;;;;5020195;28;20276;-79
2022/03/08 00:09:16;;;;;;;8.30;6.60;;;0.70;1.00;;;;;;5037861;28;20254;-79
2022/03/08 00:11:43;;;;;;;8.57;6.70;;;1.50;1.00;;;;;;5016309;28;20207;-79
2022/03/08 00:14:12;;;;;;;9.77;7.20;;;0.80;1.00;;;;;;5031671;28;20196;-79
2022/03/08 00:16:39;;;;;;;15.43;7.17;;;0.70;1.00;;;;;;5030705;28;20231;-79
2022/03/08 00:19:07;;;;;;;9.50;7.53;;;0.60;1.00;;;;;;5035217;28;20227;-79
2022/03/08 00:21:34;;;;;;;9.30;6.90;;;0.50;1.00;;;;;;5035102;28;20238;-79
2022/03/08 00:24:04;;;;;;;9.17;6.60;;;0.50;1.00;;;;;;5041194;28;20212;-79
2022/03/08 00:26:34;;;;;;;9.80;6.97;;;0.50;1.00;;;;;;5034275;28;20195;-79
2022/03/08 00:29:02;;;;;;;13.17;7.17;;;0.50;1.00;;;;;;5040858;28;20219;-79
2022/03/08 00:31:30;;;;;;;15.30;7.20;;;0.40;1.00;;;;;;5023563;28;20192;-79
2022/03/08 00:33:58;;;;;;;10.37;7.20;;;1.70;1.00;;;;;;5039646;28;20216;-78
2022/03/08 00:36:25;;;;;;;9.67;7.70;;;2.10;1.00;;;;;;5020735;28;20224;-79
2022/03/08 00:38:55;;;;;;;10.10;7.03;;;0.60;1.00;;;;;;5040536;28;20188;-79
2022/03/08 00:41:23;;;;;;;11.73;7.97;;;0.30;1.00;;;;;;5022420;28;20218;-79
2022/03/08 00:43:56;;;;;;;12.67;7.87;;;0.30;1.00;;;;;;5037776;28;20204;-79
2022/03/08 00:46:23;;;;;;;9.67;7.30;;;0.70;1.00;;;;;;5031829;28;20208;-79
2022/03/08 00:48:51;;;;;;;12.27;7.63;;;0.20;1.00;;;;;;5025140;28;20192;-79
2022/03/08 00:51:24;;;;;;;11.90;7.60;;;0.90;1.00;;;;;;5025190;28;20200;-79
2022/03/08 00:53:53;;;;;;;10.27;7.20;;;0.10;1.00;;;;;;5031224;28;20208;-79
2022/03/08 00:56:21;;;;;;;10.10;7.23;;;0.10;1.00;;;;;;5022481;28;20596;-78
2022/03/08 00:58:50;;;;;;;8.77;6.87;;;0.10;1.00;;;;;;5024013;28;20689;-78
2022/03/08 01:01:17;;;;;;;10.63;7.17;;;0.10;1.00;;;;;;5021151;28;20313;-79
2022/03/08 01:03:50;;;;;;;7.97;6.70;;;0.10;1.00;;;;;;5031608;28;20193;-79
2022/03/08 01:06:17;;;;;;;9.33;7.30;;;0.00;1.00;;;;;;5020191;28;20235;-79
2022/03/08 01:08:44;;;;;;;9.23;6.70;;;-0.10;1.00;;;;;;5022807;28;20254;-79
2022/03/08 01:11:12;;;;;;;8.40;6.00;;;-0.20;1.00;;;;;;5023008;28;20246;-79
2022/03/08 01:13:42;;;;;;;9.40;6.87;;;-0.20;1.00;;;;;;5039476;28;20200;-78
2022/03/08 01:16:12;;;;;;;9.67;6.67;;;-0.30;1.00;;;;;;5035825;28;20255;-78
2022/03/08 01:18:42;;;;;;;8.57;6.47;;;-0.30;1.00;;;;;;5016754;28;20591;-78
2022/03/08 01:21:09;;;;;;;11.73;6.87;;;-0.40;1.00;;;;;;5038455;28;20598;-78
2022/03/08 01:23:36;;;;;;;12.63;9.37;;;-0.40;1.00;;;;;;5020572;28;20200;-79
2022/03/08 01:26:03;;;;;;;14.23;10.27;;;-0.40;1.00;;;;;;5034784;28;20565;-79
2022/03/08 01:28:31;;;;;;;13.07;9.17;;;-0.40;1.00;;;;;;5022148;28;20200;-79
2022/03/08 01:31:02;;;;;;;13.20;9.20;;;-0.50;1.00;;;;;;5020534;28;20265;-79
2022/03/08 01:33:29;;;;;;;13.03;9.33;;;1.20;1.00;;;;;;5037567;28;20204;-79
2022/03/08 01:35:58;;;;;;;13.53;8.83;;;-0.40;1.00;;;;;;5039392;28;20291;-79
2022/03/08 01:38:25;;;;;;;13.50;8.43;;;-0.60;1.00;;;;;;5028884;28;20193;-79
2022/03/08 01:40:56;;;;;;;12.97;7.37;;;-0.60;1.00;;;;;;5017055;28;20196;-79
2022/03/08 01:43:23;;;;;;;8.77;7.43;;;-0.50;1.00;;;;;;5018906;28;20200;-79
2022/03/08 01:45:56;;;;;;;10.77;7.63;;;-0.50;1.00;;;;;;5023139;28;20208;-79
2022/03/08 01:48:25;;;;;;;11.37;7.50;;;0.60;1.00;;;;;;5046117;28;20656;-80
2022/03/08 01:50:53;;;;;;;10.53;7.63;;;-0.60;1.00;;;;;;5021392;28;20252;-80
2022/03/08 01:53:20;;;;;;;12.67;7.93;;;-0.60;1.00;;;;;;5040915;28;20203;-80
2022/03/08 01:55:49;;;;;;;13.87;8.00;;;0.40;1.00;;;;;;5045204;28;20299;-81
2022/03/08 01:58:23;;;;;;;12.33;6.97;;;-0.60;1.00;;;;;;5054820;28;20276;-81
2022/03/08 02:00:50;;;;;;;10.47;7.47;;;-0.40;1.00;;;;;;5040191;28;20216;-81
2022/03/08 02:03:18;;;;;;;10.50;7.57;;;-0.60;1.00;;;;;;5041618;28;20200;-80
2022/03/08 02:05:48;;;;;;;10.87;7.87;;;-0.60;1.00;;;;;;5037240;28;20254;-80
2022/03/08 02:08:15;;;;;;;9.90;7.63;;;-0.70;1.00;;;;;;5029963;28;20232;-79
2022/03/08 02:10:42;;;;;;;13.67;8.60;;;-0.10;1.00;;;;;;5033555;28;20201;-79
2022/03/08 02:13:10;;;;;;;35.97;16.40;;;-0.10;1.00;;;;;;5027329;28;21955;-78
2022/03/08 02:15:37;;;;;;;21.20;11.90;;;-0.70;1.00;;;;;;5032694;28;20211;-79
2022/03/08 02:18:05;;;;;;;20.77;11.43;;;-0.80;1.00;;;;;;5033346;28;20227;-79
2022/03/08 02:20:36;;;;;;;16.93;11.33;;;-0.80;1.00;;;;;;5039215;28;20264;-80
2022/03/08 02:23:05;;;;;;;17.00;9.83;;;-0.90;1.00;;;;;;5035810;28;20216;-80
2022/03/08 02:25:32;;;;;;;12.27;8.30;;;-0.80;1.00;;;;;;5040813;28;20562;-81
2022/03/08 02:28:00;;;;;;;11.43;8.40;;;-0.80;1.00;;;;;;5036201;28;20739;-80
2022/03/08 02:30:28;;;;;;;11.40;7.17;;;-0.70;1.00;;;;;;5029085;28;20323;-80
2022/03/08 02:32:55;;;;;;;11.50;7.77;;;-0.70;1.00;;;;;;5019904;28;20196;-81
2022/03/08 02:35:29;;;;;;;10.63;7.10;;;-0.70;1.00;;;;;;5036570;28;20216;-80
2022/03/08 02:38:04;;;;;;;9.70;7.40;;;-0.70;1.00;;;;;;5034140;28;20192;-80
2022/03/08 02:40:41;;;;;;;7.60;6.80;;;-0.70;1.00;;;;;;5033684;28;20211;-81
2022/03/08 02:43:11;;;;;;;9.50;7.20;;;-0.80;1.00;;;;;;5014241;28;20197;-81
2022/03/08 02:45:39;;;;;;;8.70;6.97;;;-0.90;1.00;;;;;;5040257;28;20330;-82
2022/03/08 02:48:09;;;;;;;8.57;7.10;;;-0.70;1.00;;;;;;5036031;28;20478;-81
2022/03/08 02:50:38;;;;;;;11.37;7.47;;;-0.10;1.00;;;;;;5036633;28;20239;-81
2022/03/08 02:53:07;;;;;;;9.17;7.00;;;-1.10;1.00;;;;;;5045217;28;20246;-81
2022/03/08 02:55:36;;;;;;;11.27;7.63;;;-1.10;1.00;;;;;;5011235;28;20196;-81
2022/03/08 02:58:05;;;;;;;10.90;7.30;;;0.10;1.00;;;;;;5026903;28;20264;-81
2022/03/08 03:00:33;;;;;;;11.03;8.07;;;-1.20;1.00;;;;;;5026382;28;20220;-81
2022/03/08 03:03:02;;;;;;;12.43;8.07;;;-1.20;1.00;;;;;;5044896;28;20184;-81
2022/03/08 03:05:30;;;;;;;13.00;7.90;;;-1.20;1.00;;;;;;5025608;28;20227;-81
2022/03/08 03:07:57;;;;;;;10.57;7.93;;;-1.20;1.00;;;;;;5029293;28;20689;-81
2022/03/08 03:10:26;;;;;;;10.90;8.20;;;-1.20;1.00;;;;;;5043028;28;20184;-80
2022/03/08 03:12:57;;;;;;;11.03;7.97;;;-1.30;1.00;;;;;;5032662;28;20197;-80
2022/03/08 03:15:27;;;;;;;9.63;8.10;;;-1.30;1.00;;;;;;5036153;28;20200;-80
2022/03/08 03:17:57;;;;;;;14.93;9.77;;;-1.30;1.00;;;;;;5020581;28;20192;-80
2022/03/08 03:20:31;;;;;;;12.17;8.53;;;-1.40;1.00;;;;;;5037366;28;20262;-80
2022/03/08 03:23:01;;;;;;;11.20;8.70;;;-1.30;1.00;;;;;;5022378;28;20197;-80
2022/03/08 03:25:28;;;;;;;14.53;8.00;;;-1.40;1.00;;;;;;5020735;28;20208;-79
2022/03/08 03:27:55;;;;;;;13.47;9.20;;;-1.40;1.00;;;;;;5039952;28;20206;-79
2022/03/08 03:30:22;;;;;;;16.20;9.13;;;-1.40;1.00;;;;;;5036899;28;20239;-79
2022/03/08 03:32:50;;;;;;;12.63;9.13;;;-1.40;1.00;;;;;;5025208;28;20192;-80
2022/03/08 03:35:20;;;;;;;12.60;9.03;;;-1.40;1.00;;;;;;5040377;28;20643;-80
2022/03/08 03:37:50;;;;;;;13.00;10.00;;;-1.40;9.30;;;;;;5036130;28;20192;-79
2022/03/08 03:40:23;;;;;;;12.77;8.93;;;-1.10;31.40;;;;;;5018720;28;20196;-79
2022/03/08 03:42:53;;;;;;;13.73;8.60;;;1.30;96.00;;;;;;5011736;28;20192;-78
2022/03/08 03:45:22;;;;;;;22.67;9.20;;;-2.10;99.80;;;;;;5034809;28;20227;-78
2022/03/08 03:47:49;;;;;;;11.90;8.50;;;-3.60;75.60;;;;;;5014429;28;20224;-79
2022/03/08 03:50:17;;;;;;;15.00;7.97;;;0.70;96.30;;;;;;5037383;28;20192;-79
2022/03/08 03:52:51;;;;;;;11.87;8.30;;;-1.80;81.00;;;;;;5020143;28;20331;-79
2022/03/08 03:55:19;;;;;;;11.13;7.70;;;1.10;49.30;;;;;;5018527;28;20203;-78
2022/03/08 03:57:46;;;;;;;14.53;9.20;;;-1.20;23.90;;;;;;5036023;28;20623;-78
2022/03/08 04:00:15;;;;;;;12.60;7.90;;;-1.40;96.60;;;;;;5018425;28;20215;-78
2022/03/08 04:02:43;;;;;;;11.07;8.30;;;-1.70;56.60;;;;;;5029308;28;20204;-79
2022/03/08 04:05:12;;;;;;;11.27;8.50;;;-1.80;75.20;;;;;;5016929;28;20232;-79
2022/03/08 04:07:43;;;;;;;14.70;8.43;;;-0.30;69.40;;;;;;5032810;28;20232;-79
2022/03/08 04:10:11;;;;;;;14.97;8.73;;;-3.40;90.70;;;;;;5033812;28;20203;-78
2022/03/08 04:12:40;;;;;;;14.00;9.13;;;-1.50;99.90;;;;;;5010606;28;20224;-78
2022/03/08 04:15:10;;;;;;;11.23;8.73;;;-1.00;99.90;;;;;;5015733;28;20657;-78
2022/03/08 04:17:38;;;;;;;13.53;8.97;;;-1.30;99.90;;;;;;5034517;28;20298;-78
2022/03/08 04:20:07;;;;;;;12.13;9.10;;;-0.90;99.90;;;;;;5016601;28;20200;-79
2022/03/08 04:22:35;;;;;;;13.37;8.83;;;-1.20;99.90;;;;;;5019042;28;20204;-78
2022/03/08 04:25:04;;;;;;;14.17;9.53;;;-1.40;99.90;;;;;;5034074;28;20605;-79
2022/03/08 04:27:32;;;;;;;13.40;8.53;;;-1.70;99.90;;;;;;5010162;28;20208;-78
2022/03/08 04:29:59;;;;;;;12.57;8.90;;;0.30;99.90;;;;;;5034109;28;20229;-77
2022/03/08 04:32:29;;;;;;;13.13;9.07;;;-1.40;99.90;;;;;;5035177;28;20203;-77
2022/03/08 04:34:57;;;;;;;10.67;8.20;;;-1.20;99.90;;;;;;5033501;28;20558;-77
2022/03/08 04:37:27;;;;;;;13.73;9.23;;;0.80;99.90;;;;;;5016087;28;21065;-77
2022/03/08 04:39:54;;;;;;;11.27;8.37;;;-0.80;99.90;;;;;;5020455;28;20204;-77
2022/03/08 04:42:22;;;;;;;12.03;8.87;;;-0.50;99.90;;;;;;5030583;28;20263;-78
2022/03/08 04:44:49;;;;;;;10.53;9.00;;;-1.20;99.90;;;;;;5033832;28;20223;-77
2022/03/08 04:47:20;;;;;;;13.67;9.00;;;1.40;99.90;;;;;;5028638;28;20239;-78
2022/03/08 04:49:48;;;;;;;14.33;8.77;;;-2.00;99.90;;;;;;5030695;28;20244;-78
2022/03/08 04:52:16;;;;;;;14.70;8.77;;;-0.10;99.90;;;;;;5016267;28;20269;-77
2022/03/08 04:54:43;;;;;;;11.90;8.80;;;-1.40;99.90;;;;;;5014603;28;20765;-77
2022/03/08 04:57:13;;;;;;;10.57;8.80;;;-1.70;99.90;;;;;;5031884;28;20269;-77
2022/03/08 04:59:41;;;;;;;12.93;8.90;;;-1.50;99.90;;;;;;5030655;28;20219;-78
2022/03/08 05:02:13;;;;;;;13.27;8.83;;;-0.30;99.90;;;;;;5034314;28;20192;-77
2022/03/08 05:04:40;;;;;;;13.60;8.47;;;-1.50;99.90;;;;;;5036908;28;20192;-77
2022/03/08 05:07:08;;;;;;;12.30;9.10;;;0.50;99.90;;;;;;5037380;28;20865;-79
2022/03/08 05:09:35;;;;;;;13.23;8.90;;;-1.80;99.90;;;;;;5006914;28;20217;-78
2022/03/08 05:12:04;;;;;;;13.83;9.33;;;-1.80;99.90;;;;;;5038278;28;20197;-78
2022/03/08 05:14:33;;;;;;;14.30;9.17;;;-1.80;99.90;;;;;;5046444;28;20223;-78
2022/03/08 05:17:04;;;;;;;11.67;8.63;;;-1.90;99.90;;;;;;5033337;28;20258;-78
2022/03/08 05:19:33;;;;;;;11.67;8.83;;;-1.90;99.90;;;;;;5040130;28;20229;-78
2022/03/08 05:22:02;;;;;;;11.20;8.63;;;-1.90;99.90;;;;;;5039080;28;20224;-78
2022/03/08 05:24:29;;;;;;;12.77;9.13;;;-2.00;99.90;;;;;;5031042;28;20197;-78
2022/03/08 05:26:56;;;;;;;13.50;9.60;;;-2.00;99.90;;;;;;5038418;28;20220;-78
2022/03/08 05:29:23;;;;;;;13.87;9.17;;;-2.00;99.90;;;;;;5020219;28;20223;-78
2022/03/08 05:31:54;;;;;;;12.47;9.37;;;-2.00;99.90;;;;;;5017090;28;20196;-78
2022/03/08 05:34:25;;;;;;;16.27;9.40;;;-2.00;99.90;;;;;;5039690;28;20226;-78
2022/03/08 05:36:53;;;;;;;14.37;10.17;;;-2.00;99.90;;;;;;5038172;28;20201;-80
2022/03/08 05:39:31;;;;;;;13.47;9.67;;;-2.00;99.90;;;;;;5026958;28;20231;-80
2022/03/08 05:41:58;;;;;;;13.87;9.33;;;-2.20;99.90;;;;;;4998833;23;20225;-62
2022/03/08 05:44:25;;;;;;;15.47;9.80;;;-2.10;99.90;;;;;;5000892;28;20190;-62
2022/03/08 05:46:55;;;;;;;12.57;9.73;;;-2.00;99.90;;;;;;5001736;28;20216;-62
2022/03/08 05:49:25;;;;;;;14.03;10.30;;;-1.90;99.90;;;;;;5007176;28;20205;-63
2022/03/08 05:51:52;;;;;;;14.80;10.20;;;-2.00;99.90;;;;;;5003683;28;20193;-63
2022/03/08 05:54:19;;;;;;;15.97;9.93;;;-2.00;99.90;;;;;;5003352;28;20225;-63
2022/03/08 05:56:46;;;;;;;13.60;9.63;;;-2.10;99.90;;;;;;5007709;28;20200;-63
2022/03/08 05:59:13;;;;;;;16.10;10.47;;;-2.10;99.90;;;;;;4988938;28;20279;-63
2022/03/08 06:01:42;;;;;;;15.00;9.10;;;-2.00;99.90;;;;;;5020119;28;20209;-63
2022/03/08 06:04:09;;;;;;;13.43;10.60;;;-1.90;99.90;;;;;;4999645;28;20542;-64
2022/03/08 06:06:39;;;;;;;13.67;9.80;;;-1.90;99.90;;;;;;5001199;28;20220;-63
2022/03/08 06:09:06;;;;;;;18.47;9.10;;;-1.90;99.90;;;;;;5000273;28;20197;-63
2022/03/08 06:11:33;;;;;;;13.33;9.37;;;-1.80;99.90;;;;;;4999437;28;20212;-64
2022/03/08 06:13:59;;;;;;;18.40;9.97;;;-1.80;99.90;;;;;;5000819;28;20598;-63
2022/03/08 06:16:26;;;;;;;16.23;9.43;;;-1.80;99.90;;;;;;5006108;28;20256;-62
2022/03/08 06:18:56;;;;;;;16.83;11.40;;;-1.60;99.90;;;;;;5001902;28;20197;-62
2022/03/08 06:21:26;;;;;;;19.00;10.93;;;-0.30;99.90;;;;;;5002344;28;20202;-63
2022/03/08 06:23:53;;;;;;;13.33;9.27;;;1.40;1.00;;;;;;5003903;28;20312;-62
2022/03/08 06:26:20;;;;;;;14.83;9.30;;;2.80;1.00;;;;;;4989915;28;20229;-61
2022/03/08 06:28:47;;;;;;;16.30;9.30;;;4.10;1.00;;;;;;4984166;28;20284;-61
2022/03/08 06:31:14;;;;;;;17.17;8.73;;;4.90;1.00;;;;;;4984320;28;20379;-62
2022/03/08 06:33:43;;;;;;;12.17;8.67;;;5.90;1.00;;;;;;4989246;28;20201;-63
2022/03/08 06:36:10;;;;;;;12.47;8.57;;;6.10;1.00;;;;;;4999554;28;20253;-62
2022/03/08 06:38:40;;;;;;;10.57;8.17;;;6.50;1.00;;;;;;4996309;28;20734;-62
2022/03/08 06:41:07;;;;;;;13.60;8.57;;;7.30;1.00;;;;;;4984384;28;20288;-62
2022/03/08 06:43:34;;;;;;;10.47;8.00;;;8.00;1.00;;;;;;4981914;28;20232;-63
2022/03/08 06:46:03;;;;;;;10.13;7.97;;;9.20;1.00;;;;;;4987084;28;20210;-62
2022/03/08 06:48:34;;;;;;;9.20;7.77;;;9.60;1.00;;;;;;4984534;28;20592;-63
2022/03/08 06:51:02;;;;;;;12.03;8.20;;;9.70;1.00;;;;;;4984814;28;20194;-62
2022/03/08 06:53:29;;;;;;;9.83;8.07;;;10.60;1.00;;;;;;4982388;28;20197;-63
2022/03/08 06:55:58;;;;;;;10.33;8.53;;;11.10;1.00;;;;;;4997194;28;20264;-62
2022/03/08 06:58:26;;;;;;;11.40;8.60;;;12.00;1.00;;;;;;4983994;28;20194;-63
2022/03/08 07:00:54;;;;;;;11.37;8.33;;;12.70;1.00;;;;;;4984248;28;20198;-62
2022/03/08 07:03:21;;;;;;;9.83;8.07;;;12.70;1.00;;;;;;4997724;28;20565;-63
2022/03/08 07:05:49;;;;;;;14.95;8.35;;;13.20;1.00;;;;;;4983057;28;20202;-63
2022/03/08 07:08:19;;;;;;;11.38;7.45;;;13.80;1.00;;;;;;4982585;28;20194;-63
2022/03/08 07:10:50;;;;;;;11.15;8.60;;;14.30;1.00;;;;;;4983416;28;20241;-62
2022/03/08 07:13:22;;;;;;;8.85;7.22;;;15.00;1.00;;;;;;5005916;28;20205;-63
2022/03/08 07:15:49;;;;;;;9.52;6.85;;;15.20;1.00;;;;;;4988062;28;20202;-62
2022/03/08 07:18:16;;;;;;;7.55;6.47;;;14.40;99.90;;;;;;4982043;28;20210;-63
2022/03/08 07:20:43;;;;;;;7.43;6.72;;;14.70;99.90;;;;;;4999790;28;20261;-62
2022/03/08 07:23:10;;;;;;;7.45;6.75;;;14.30;99.90;;;;;;4996244;28;20685;-63
2022/03/08 07:25:37;;;;;;;10.80;7.32;;;15.00;99.90;;;;;;4982599;28;20246;-63
2022/03/08 07:28:04;;;;;;;8.07;6.78;;;14.80;99.90;;;;;;4972400;28;20225;-62
2022/03/08 07:30:51;;;;;;;9.52;7.20;;;14.70;99.90;;;;;;4988580;28;20225;-63
2022/03/08 07:33:18;;;;;;;7.80;7.00;;;15.50;99.90;;;;;;4999015;28;20293;-62
2022/03/08 07:35:48;;;;;;;7.60;6.78;;;15.60;99.90;;;;;;4997652;28;20742;-63
2022/03/08 07:38:17;;;;;;;7.65;6.95;;;16.40;99.90;;;;;;4987896;28;20194;-63
2022/03/08 07:40:44;;;;;;;8.10;7.28;;;16.80;99.90;;;;;;4987730;28;20241;-63
2022/03/08 07:43:11;;;;;;;8.30;6.97;;;17.10;99.90;;;;;;4982066;28;20233;-63
2022/03/08 07:45:38;;;;;;;8.93;7.40;;;16.70;99.90;;;;;;4988488;28;20206;-63
2022/03/08 07:48:06;;;;;;;8.90;7.43;;;14.40;99.90;;;;;;4995200;28;20220;-63
2022/03/08 07:50:34;;;;;;;9.23;7.43;;;12.20;99.90;;;;;;4985607;28;20201;-63
2022/03/08 07:53:01;;;;;;;9.73;7.47;;;10.50;99.90;;;;;;4980219;28;20190;-63
2022/03/08 07:55:31;;;;;;;9.83;7.63;;;8.30;99.90;;;;;;4993724;28;20351;-63
2022/03/08 07:57:59;;;;;;;11.83;7.53;;;7.10;1.00;;;;;;4977011;28;20613;-63
2022/03/08 08:00:30;;;;;;;10.47;7.43;;;6.40;1.00;;;;;;4983199;28;20720;-64
2022/03/08 08:02:57;;;;;;;13.57;8.73;;;6.20;1.00;;;;;;4980917;28;20255;-64
2022/03/08 08:05:24;;;;;;;12.73;8.47;;;5.90;1.00;;;;;;4985853;28;20205;-64
2022/03/08 08:07:54;;;;;;;10.00;8.43;;;5.70;1.00;;;;;;4985465;28;20309;-63
2022/03/08 08:10:20;;;;;;;9.00;8.10;;;5.70;1.00;;;;;;4996734;28;20228;-63
2022/03/08 08:12:47;;;;;;;10.77;8.23;;;5.40;1.00;;;;;;4998032;28;20216;-61
2022/03/08 08:15:14;;;;;;;11.17;8.77;;;5.20;1.00;;;;;;4986578;28;20229;-61
2022/03/08 08:17:41;;;;;;;11.50;9.10;;;5.20;1.00;;;;;;4986778;28;20300;-61
2022/03/08 08:20:09;;;;;;;10.77;8.30;;;5.20;1.00;;;;;;4988221;28;20242;-61
2022/03/08 08:22:36;;;;;;;12.30;9.10;;;5.10;1.00;;;;;;4996360;28;20233;-62
2022/03/08 08:25:04;;;;;;;14.73;9.50;;;5.00;1.00;;;;;;4982306;28;20201;-62
2022/03/08 08:27:32;;;;;;;12.73;9.50;;;5.10;1.00;;;;;;4982409;28;20591;-61
2022/03/08 08:29:59;;;;;;;10.40;9.30;;;5.10;1.00;;;;;;4986273;28;20225;-61
2022/03/08 08:32:26;;;;;;;10.33;8.80;;;5.20;1.00;;;;;;4982755;28;20198;-61
2022/03/08 08:34:55;;;;;;;10.53;8.87;;;5.30;1.00;;;;;;4998916;28;20193;-62
2022/03/08 08:37:22;;;;;;;16.10;8.97;;;5.50;1.00;;;;;;5000405;28;20198;-61
2022/03/08 08:39:49;;;;;;;10.63;8.23;;;5.60;1.00;;;;;;4984385;28;20734;-61
2022/03/08 08:42:19;;;;;;;9.90;7.90;;;5.60;1.00;;;;;;4999534;28;20209;-61
2022/03/08 08:44:51;;;;;;;11.70;8.23;;;5.60;1.00;;;;;;4985246;28;20194;-60
2022/03/08 08:47:21;;;;;;;10.47;8.40;;;5.70;1.00;;;;;;4984784;28;20214;-60
2022/03/08 08:49:48;;;;;;;9.70;8.07;;;5.60;1.00;;;;;;4968931;28;20563;-62
2022/03/08 08:52:15;;;;;;;9.47;7.73;;;5.70;1.00;;;;;;4973364;28;20210;-62
2022/03/08 08:54:46;;;;;;;10.37;7.57;;;5.80;1.00;;;;;;4998376;28;20224;-61
2022/03/08 08:57:13;;;;;;;10.00;7.70;;;5.80;1.00;;;;;;4973565;28;20229;-62
2022/03/08 08:59:43;;;;;;;8.73;7.13;;;5.70;1.00;;;;;;4974952;28;20194;-62
2022/03/08 09:02:10;;;;;;;8.87;7.20;;;5.90;1.00;;;;;;4990651;28;20210;-61
2022/03/08 09:04:37;;;;;;;9.87;7.07;;;6.00;1.00;;;;;;4984679;28;20192;-61
2022/03/08 09:07:07;;;;;;;8.33;6.73;;;6.40;1.00;;;;;;5001155;28;20241;-61
2022/03/08 09:09:35;;;;;;;8.30;6.03;;;11.30;1.00;;;;;;4984216;28;20242;-63
2022/03/08 09:12:05;;;;;;;8.13;5.90;;;16.60;1.00;;;;;;4981740;28;20234;-64
2022/03/08 09:14:31;;;;;;;8.73;6.40;;;19.40;99.90;;;;;;4998069;28;20209;-64
2022/03/08 09:16:58;;;;;;;9.38;6.28;;;19.50;99.90;;;;;;4998077;28;20213;-63
2022/03/08 09:19:27;;;;;;;8.38;5.65;;;19.40;99.90;;;;;;4985256;28;20206;-63
2022/03/08 09:21:57;;;;;;;6.57;5.85;;;20.30;99.90;;;;;;4985342;28;20256;-63
2022/03/08 09:24:24;;;;;;;6.53;5.68;;;20.80;99.90;;;;;;4997746;28;20210;-64
2022/03/08 09:26:54;;;;;;;6.10;5.50;;;19.90;99.90;;;;;;4982753;28;20221;-63
2022/03/08 09:29:21;;;;;;;6.38;5.78;;;20.60;99.90;;;;;;4983276;28;20205;-63
2022/03/08 09:31:49;;;;;;;6.25;5.65;;;21.20;99.90;;;;;;4985391;28;20641;-63
2022/03/08 09:34:16;;;;;;;6.00;5.30;;;19.80;99.90;;;;;;4982552;28;20604;-63
2022/03/08 09:36:43;;;;;;;6.10;5.15;;;19.40;99.90;;;;;;4990328;28;20194;-64
2022/03/08 09:39:13;;;;;;;6.03;5.30;;;20.40;99.90;;;;;;4973691;28;20209;-63
2022/03/08 09:41:44;;;;;;;5.97;5.38;;;21.60;99.90;;;;;;4987204;28;20744;-63
2022/03/08 09:44:14;;;;;;;5.50;5.00;;;24.50;99.90;;;;;;4989811;28;21149;-64
2022/03/08 09:46:41;;;;;;;6.97;5.60;;;22.70;99.90;;;;;;5013399;28;20321;-63
2022/03/08 09:49:13;;;;;;;7.63;5.72;;;21.50;99.90;;;;;;4989416;28;20217;-63
2022/03/08 09:51:42;;;;;;;6.05;5.07;;;22.20;99.90;;;;;;4985128;28;20194;-63
2022/03/08 09:54:10;;;;;;;6.95;5.05;;;22.40;99.90;;;;;;4989114;28;20252;-63
2022/03/08 09:56:37;;;;;;;7.03;4.97;;;23.40;99.90;;;;;;5003171;28;20252;-64
2022/03/08 09:59:04;;;;;;;5.65;5.10;;;22.90;99.90;;;;;;5005037;28;20202;-63
2022/03/08 10:01:31;;;;;;;5.82;5.22;;;23.00;99.90;;;;;;4986031;28;20641;-63
2022/03/08 10:04:02;;;;;;;5.28;4.75;;;21.80;99.90;;;;;;4984539;28;20202;-64
2022/03/08 10:06:50;;;;;;;8.00;5.10;;;21.70;99.90;;;;;;4983044;28;20313;-64
2022/03/08 10:09:19;;;;;;;9.30;5.47;;;21.60;99.90;;;;;;4968905;28;20241;-64
2022/03/08 10:11:51;;;;;;;6.03;5.43;;;22.40;99.90;;;;;;4985759;28;20202;-64
2022/03/08 10:14:39;;;;;;;6.68;5.25;;;22.00;99.90;;;;;;4994751;28;20194;-64
2022/03/08 10:17:08;;;;;;;8.50;5.78;;;23.90;99.90;;;;;;4998390;28;20248;-63
2022/03/08 10:19:49;;;;;;;6.10;5.38;;;22.30;99.90;;;;;;5000702;28;20296;-63
2022/03/08 10:22:30;;;;;;;6.75;4.97;;;21.90;99.90;;;;;;4983238;28;20707;-63
2022/03/08 10:25:17;;;;;;;5.78;4.88;;;22.70;99.90;;;;;;4984636;28;20241;-67
2022/03/08 10:27:54;;;;;;;6.53;5.43;;;23.90;99.90;;;;;;4997085;28;20222;-63
2022/03/08 10:30:45;;;;;;;7.43;4.57;;;23.80;99.90;;;;;;4991790;28;20201;-63
2022/03/08 10:33:20;;;;;;;7.75;5.63;;;23.30;99.90;;;;;;4982697;28;20214;-63
2022/03/08 10:35:53;;;;;;;5.78;5.18;;;22.40;99.90;;;;;;5003382;28;20185;-62
2022/03/08 10:38:20;;;;;;;6.22;4.70;;;22.20;99.90;;;;;;4989220;28;20290;-62
2022/03/08 10:40:47;;;;;;;5.88;4.35;;;21.50;99.90;;;;;;4989142;28;20246;-63
2022/03/08 10:43:16;;;;;;;5.50;5.00;;;22.30;99.90;;;;;;4987695;28;20245;-63
2022/03/08 10:45:50;;;;;;;6.53;4.53;;;22.70;99.90;;;;;;4985117;28;20221;-62
2022/03/08 10:48:20;;;;;;;5.85;4.85;;;24.00;99.90;;;;;;4988823;28;20209;-62
2022/03/08 10:50:50;;;;;;;6.40;5.03;;;22.00;99.90;;;;;;4970550;28;20665;-62
2022/03/08 10:53:20;;;;;;;5.88;4.78;;;21.70;99.90;;;;;;4998650;28;20213;-62
2022/03/08 10:55:49;;;;;;;7.47;4.80;;;22.70;99.90;;;;;;4980663;28;20196;-63
2022/03/08 10:58:18;;;;;;;6.07;4.20;;;23.30;99.90;;;;;;4984979;28;20201;-63
2022/03/08 11:00:51;;;;;;;4.88;3.78;;;22.30;99.90;;;;;;4995558;28;20213;-63
2022/03/08 11:03:21;;;;;;;4.68;4.05;;;22.30;99.90;;;;;;4984558;28;20600;-62
2022/03/08 11:05:51;;;;;;;5.20;4.03;;;21.70;99.90;;;;;;4987272;28;20206;-62
2022/03/08 11:08:20;;;;;;;5.70;4.35;;;21.20;99.90;;;;;;4999681;28;20471;-62
2022/03/08 11:10:47;;;;;;;4.65;4.25;;;21.00;99.90;;;;;;4985877;28;20198;-62
2022/03/08 11:13:16;;;;;;;7.45;4.30;;;20.40;99.90;;;;;;4999652;28;20244;-62
2022/03/08 11:15:44;;;;;;;8.70;4.35;;;20.00;99.90;;;;;;4998857;28;20221;-64
2022/03/08 11:18:13;;;;;;;4.70;4.20;;;19.60;99.90;;;;;;4987643;28;20235;-63
2022/03/08 11:20:42;;;;;;;5.03;3.45;;;20.10;99.90;;;;;;5002549;28;20205;-63
2022/03/08 11:23:10;;;;;;;3.67;2.95;;;20.70;99.90;;;;;;4987639;28;20240;-63
2022/03/08 11:25:42;;;;;;;5.15;3.35;;;20.00;99.90;;;;;;4987034;28;20197;-63
2022/03/08 11:28:27;;;;;;;3.95;3.22;;;19.80;99.90;;;;;;4984674;28;20550;-63
2022/03/08 11:30:58;;;;;;;2.88;2.67;;;18.80;99.90;;;;;;4984738;28;20190;-63
2022/03/08 11:33:58;;;;;;;3.72;2.90;;;18.10;99.90;;;;;;4979401;28;20673;-63
2022/03/08 11:36:33;;;;;;;6.32;3.58;;;18.10;99.90;;;;;;4998461;28;20252;-63
2022/03/08 11:39:17;;;;;;;4.32;3.15;;;18.20;99.90;;;;;;4970995;28;20224;-64
2022/03/08 11:41:55;;;;;;;3.95;3.05;;;18.80;99.90;;;;;;5006127;28;20284;-64
2022/03/08 11:44:30;;;;;;;4.25;3.08;;;19.30;99.90;;;;;;4984101;28;20240;-64
2022/03/08 11:47:17;;;;;;;3.85;2.75;;;18.40;99.90;;;;;;4997613;28;20537;-63
2022/03/08 11:49:53;;;;;;;3.38;2.65;;;18.00;99.90;;;;;;4998126;28;20288;-63
2022/03/08 11:52:36;;;;;;;4.88;3.88;;;17.70;99.90;;;;;;4978999;28;20292;-64
2022/03/08 11:55:10;;;;;;;3.55;2.72;;;17.60;99.90;;;;;;4986507;28;20279;-64
2022/03/08 11:57:51;;;;;;;3.25;2.90;;;16.60;99.90;;;;;;4983899;28;20217;-63
2022/03/08 12:00:30;;;;;;;3.50;2.90;;;15.90;99.90;;;;;;4984443;28;20217;-64
2022/03/08 12:03:04;;;;;;;4.55;3.00;;;16.50;99.90;;;;;;4997354;28;20189;-63
2022/03/08 12:05:37;;;;;;;5.30;2.83;;;16.30;99.90;;;;;;4974227;28;20205;-63
2022/03/08 12:08:26;;;;;;;4.65;2.75;;;16.10;99.90;;;;;;4987676;28;20248;-63
2022/03/08 12:11:04;;;;;;;3.55;2.75;;;15.60;99.90;;;;;;4998990;28;20190;-64
2022/03/08 12:14:08;;;;;;;3.60;2.78;;;16.80;99.90;;;;;;4984237;28;20206;-67
2022/03/08 12:16:39;;;;;;;4.32;3.05;;;17.00;99.90;;;;;;4987038;28;20202;-64
2022/03/08 12:19:11;;;;;;;3.83;2.60;;;15.80;99.90;;;;;;4985626;28;20192;-63
2022/03/08 12:21:41;;;;;;;3.70;2.80;;;15.80;99.90;;;;;;4985649;28;20546;-64
2022/03/08 12:24:08;;;;;;;3.90;2.97;;;16.30;99.90;;;;;;5004222;28;20217;-64
2022/03/08 12:26:47;;;;;;;6.15;2.90;;;15.90;99.90;;;;;;4990494;28;20252;-63
2022/03/08 12:29:55;;;;;;;4.18;3.17;;;15.00;99.90;;;;;;4995799;28;20538;-63
2022/03/08 12:32:33;;;;;;;5.25;3.35;;;14.80;99.90;;;;;;5002920;28;20251;-63
2022/03/08 12:35:16;;;;;;;4.43;3.65;;;14.90;99.90;;;;;;4985811;28;20271;-63
2022/03/08 12:37:49;;;;;;;5.10;3.60;;;14.60;99.90;;;;;;4980907;28;20202;-64
2022/03/08 12:40:19;;;;;;;5.07;3.50;;;15.20;99.90;;;;;;4973958;28;20237;-63
2022/03/08 12:42:49;;;;;;;4.35;3.72;;;14.70;99.90;;;;;;4964753;28;20206;-63
2022/03/08 12:45:34;;;;;;;4.87;3.03;;;15.00;99.90;;;;;;4989558;28;20186;-63
2022/03/08 12:48:09;;;;;;;4.28;3.30;;;15.30;99.90;;;;;;4971268;28;20353;-64
2022/03/08 12:50:56;;;;;;;3.97;3.40;;;14.80;99.90;;;;;;5001935;28;20205;-63
2022/03/08 12:53:28;;;;;;;6.43;3.83;;;14.00;99.90;;;;;;4984035;28;20194;-64
2022/03/08 12:55:57;;;;;;;4.27;3.87;;;14.40;99.90;;;;;;4986623;28;20666;-63
2022/03/08 12:58:33;;;;;;;4.63;3.93;;;14.00;99.90;;;;;;4986569;28;20209;-63
2022/03/08 13:01:04;;;;;;;4.00;3.60;;;13.70;99.90;;;;;;4985580;28;20262;-64
2022/03/08 13:03:35;;;;;;;6.30;3.67;;;13.40;99.90;;;;;;4987309;28;20205;-63